Time;durP1;ratioP1;P1;durP2;ratioP2;P2;SDS_P1;SDS_P2;PMS_P1;PMS_P2;Temp;Humidity;BMP_temperature;BMP_pressure;BME280_temperature;BME280_humidity;BME280_pressure;Samples;Min_cycle;Max_cycle;Signal;HPM_P1;HPM_P2
2023/08/01 00:01:32;;;;;;;4.27;3.87;;;;;;;;;;6255704;28;20182;-64
2023/08/01 00:04:33;;;;;;;4.20;3.77;;;;;;;;;;6265587;28;20194;-64
2023/08/01 00:07:34;;;;;;;4.73;3.80;;;;;;;;;;6235622;28;20197;-64
2023/08/01 00:10:35;;;;;;;4.33;3.93;;;;;;;;;;6250616;28;20187;-64
2023/08/01 00:13:36;;;;;;;5.63;3.73;;;;;;;;;;6270965;28;20190;-64
2023/08/01 00:16:37;;;;;;;5.23;3.73;;;;;;;;;;6251977;28;20244;-64
2023/08/01 00:19:38;;;;;;;4.70;3.27;;;;;;;;;;6271058;28;20186;-64
2023/08/01 00:22:40;;;;;;;5.20;3.70;;;;;;;;;;6253645;28;20181;-64
2023/08/01 00:25:41;;;;;;;5.23;3.80;;;;;;;;;;6239824;28;20198;-64
2023/08/01 00:28:42;;;;;;;3.90;3.23;;;;;;;;;;6239963;28;20194;-64
2023/08/01 00:31:43;;;;;;;5.63;3.70;;;;;;;;;;6265358;28;20250;-64
2023/08/01 00:34:44;;;;;;;4.83;4.10;;;;;;;;;;6248891;28;20210;-64
2023/08/01 00:37:45;;;;;;;4.20;3.80;;;;;;;;;;6253710;28;20205;-64
2023/08/01 00:40:46;;;;;;;3.60;3.30;;;;;;;;;;6253385;28;20186;-64
2023/08/01 00:43:47;;;;;;;3.97;3.57;;;;;;;;;;6285529;28;20194;-64
2023/08/01 00:46:49;;;;;;;4.73;4.20;;;;;;;;;;6242785;28;20195;-64
2023/08/01 00:49:50;;;;;;;5.47;3.47;;;;;;;;;;6266556;28;20236;-64
2023/08/01 00:52:52;;;;;;;7.00;4.23;;;;;;;;;;6249152;28;20203;-64
2023/08/01 00:55:55;;;;;;;6.13;4.00;;;;;;;;;;6245233;28;20264;-64
2023/08/01 00:58:56;;;;;;;4.10;3.70;;;;;;;;;;6260315;28;20269;-64
2023/08/01 01:01:57;;;;;;;4.57;3.67;;;;;;;;;;6250115;28;20201;-64
2023/08/01 01:04:58;;;;;;;5.63;3.80;;;;;;;;;;6262818;28;20190;-64
2023/08/01 01:08:00;;;;;;;5.03;4.07;;;;;;;;;;6258331;28;20197;-64
2023/08/01 01:11:01;;;;;;;5.17;4.07;;;;;;;;;;6266059;28;20225;-64
2023/08/01 01:14:03;;;;;;;6.27;3.83;;;;;;;;;;6248294;28;20190;-64
2023/08/01 01:17:04;;;;;;;6.07;4.00;;;;;;;;;;6270903;28;20214;-64
2023/08/01 01:20:05;;;;;;;4.13;3.73;;;;;;;;;;6270409;28;20198;-64
2023/08/01 01:23:08;;;;;;;7.80;4.07;;;;;;;;;;6258055;28;20196;-64
2023/08/01 01:26:10;;;;;;;3.83;3.53;;;;;;;;;;6265170;28;20234;-64
2023/08/01 01:29:11;;;;;;;5.77;3.97;;;;;;;;;;6256247;28;20195;-64
2023/08/01 01:32:12;;;;;;;4.60;4.20;;;;;;;;;;6253278;28;20241;-64
2023/08/01 01:35:13;;;;;;;6.87;3.70;;;;;;;;;;6259052;28;20228;-64
2023/08/01 01:38:14;;;;;;;4.27;3.30;;;;;;;;;;6255824;28;20198;-64
2023/08/01 01:41:15;;;;;;;5.20;3.90;;;;;;;;;;6252074;28;20194;-64
2023/08/01 01:44:16;;;;;;;5.77;3.70;;;;;;;;;;6288846;28;20191;-64
2023/08/01 01:47:18;;;;;;;5.87;4.07;;;;;;;;;;6255607;28;20204;-64
2023/08/01 01:50:19;;;;;;;5.73;3.63;;;;;;;;;;6252480;28;20278;-64
2023/08/01 01:53:20;;;;;;;4.33;3.53;;;;;;;;;;6259639;28;20251;-64
2023/08/01 01:56:21;;;;;;;4.27;3.60;;;;;;;;;;6256868;28;20221;-64
2023/08/01 01:59:22;;;;;;;6.83;3.80;;;;;;;;;;6247236;28;20198;-64
2023/08/01 02:02:23;;;;;;;4.67;3.80;;;;;;;;;;6276660;28;20190;-64
2023/08/01 02:05:24;;;;;;;4.43;3.60;;;;;;;;;;6258143;28;20202;-64
2023/08/01 02:08:25;;;;;;;4.77;3.90;;;;;;;;;;6290500;28;20189;-64
2023/08/01 02:11:27;;;;;;;5.83;3.60;;;;;;;;;;6256022;28;20205;-64
2023/08/01 02:14:28;;;;;;;4.30;3.90;;;;;;;;;;6258581;28;20248;-64
2023/08/01 02:17:29;;;;;;;3.97;3.43;;;;;;;;;;6244147;28;20214;-64
2023/08/01 02:20:30;;;;;;;4.40;3.80;;;;;;;;;;6256994;28;20197;-64
2023/08/01 02:23:32;;;;;;;7.57;3.97;;;;;;;;;;6273015;28;20192;-64
2023/08/01 02:26:33;;;;;;;6.13;3.83;;;;;;;;;;6257840;28;20194;-64
2023/08/01 02:29:34;;;;;;;8.57;4.20;;;;;;;;;;6256413;28;20189;-64
2023/08/01 02:32:35;;;;;;;4.13;3.60;;;;;;;;;;6248499;28;20189;-64
2023/08/01 02:35:36;;;;;;;6.27;3.77;;;;;;;;;;6255304;28;20227;-64
2023/08/01 02:38:37;;;;;;;6.97;3.97;;;;;;;;;;6258357;28;20183;-64
2023/08/01 02:41:38;;;;;;;3.80;3.33;;;;;;;;;;6270290;28;20189;-64
2023/08/01 02:44:39;;;;;;;5.37;4.10;;;;;;;;;;6257329;28;20319;-64
2023/08/01 02:47:40;;;;;;;4.43;3.97;;;;;;;;;;6260121;28;20213;-64
2023/08/01 02:50:42;;;;;;;5.10;4.07;;;;;;;;;;6253612;28;20193;-64
2023/08/01 02:53:43;;;;;;;4.73;3.77;;;;;;;;;;6243800;28;20186;-64
2023/08/01 02:56:44;;;;;;;6.53;3.67;;;;;;;;;;6277060;28;20245;-64
2023/08/01 02:59:45;;;;;;;5.23;4.20;;;;;;;;;;6266405;28;20213;-64
2023/08/01 03:02:46;;;;;;;4.60;4.10;;;;;;;;;;6277435;28;20195;-64
2023/08/01 03:05:47;;;;;;;7.03;4.10;;;;;;;;;;6271514;28;20197;-64
2023/08/01 03:08:48;;;;;;;7.70;4.53;;;;;;;;;;6254782;28;20186;-64
2023/08/01 03:11:49;;;;;;;4.97;4.20;;;;;;;;;;6251735;28;20190;-64
2023/08/01 03:14:50;;;;;;;4.67;4.27;;;;;;;;;;6251607;28;20216;-64
2023/08/01 03:17:51;;;;;;;4.70;4.00;;;;;;;;;;6247068;28;20202;-64
2023/08/01 03:20:52;;;;;;;5.13;3.63;;;;;;;;;;6247811;28;20191;-64
2023/08/01 03:23:53;;;;;;;5.23;3.97;;;;;;;;;;6263771;28;20187;-64
2023/08/01 03:26:54;;;;;;;5.67;4.23;;;;;;;;;;6249926;28;20193;-64
2023/08/01 03:29:55;;;;;;;5.57;4.00;;;;;;;;;;6248150;28;20242;-64
2023/08/01 03:32:57;;;;;;;4.80;4.30;;;;;;;;;;6246444;28;20275;-64
2023/08/01 03:35:58;;;;;;;3.90;3.50;;;;;;;;;;6243841;28;20229;-64
2023/08/01 03:38:59;;;;;;;4.80;3.93;;;;;;;;;;6248268;28;20221;-64
2023/08/01 03:42:00;;;;;;;4.87;3.37;;;;;;;;;;6271614;28;20190;-64
2023/08/01 03:45:01;;;;;;;6.40;4.23;;;;;;;;;;6254631;28;20190;-64
2023/08/01 03:48:02;;;;;;;4.70;3.87;;;;;;;;;;6253799;28;20194;-64
2023/08/01 03:51:03;;;;;;;6.53;4.10;;;;;;;;;;6270818;28;20221;-64
2023/08/01 03:54:04;;;;;;;4.47;4.00;;;;;;;;;;6251778;28;20226;-64
2023/08/01 03:57:06;;;;;;;4.53;4.10;;;;;;;;;;6238285;28;20397;-64
2023/08/01 04:00:13;;;;;;;4.40;4.00;;;;;;;;;;6246534;28;20251;-64
2023/08/01 04:03:14;;;;;;;5.70;4.03;;;;;;;;;;6249152;28;20234;-64
2023/08/01 04:06:15;;;;;;;8.57;3.50;;;;;;;;;;6272209;28;20254;-64
2023/08/01 04:09:16;;;;;;;4.47;3.83;;;;;;;;;;6257577;28;20212;-64
2023/08/01 04:12:17;;;;;;;7.03;4.43;;;;;;;;;;6252840;28;20209;-64
2023/08/01 04:15:18;;;;;;;5.60;4.13;;;;;;;;;;6282796;28;20226;-64
2023/08/01 04:18:19;;;;;;;7.27;4.27;;;;;;;;;;6244652;28;20194;-64
2023/08/01 04:21:20;;;;;;;4.93;4.37;;;;;;;;;;6249747;28;20197;-64
2023/08/01 04:24:25;;;;;;;5.33;4.03;;;;;;;;;;6252172;28;20205;-64
2023/08/01 04:27:26;;;;;;;7.83;4.43;;;;;;;;;;6256637;28;20285;-64
2023/08/01 04:30:27;;;;;;;5.23;4.27;;;;;;;;;;6252554;28;20245;-64
2023/08/01 04:33:28;;;;;;;5.17;3.80;;;;;;;;;;6279204;28;20206;-64
2023/08/01 04:36:29;;;;;;;4.10;3.70;;;;;;;;;;6259445;28;20266;-64
2023/08/01 04:39:30;;;;;;;3.90;3.60;;;;;;;;;;6244561;28;20194;-64
2023/08/01 04:42:31;;;;;;;5.70;4.37;;;;;;;;;;6275019;28;20189;-64
2023/08/01 04:45:32;;;;;;;6.73;4.20;;;;;;;;;;6254072;28;20225;-64
2023/08/01 04:48:33;;;;;;;4.13;3.83;;;;;;;;;;6250724;28;20293;-64
2023/08/01 04:51:34;;;;;;;4.50;4.10;;;;;;;;;;6276646;28;20217;-64
2023/08/01 04:54:35;;;;;;;4.63;4.10;;;;;;;;;;6266395;28;20197;-64
2023/08/01 04:57:36;;;;;;;5.37;3.83;;;;;;;;;;6251448;28;20190;-64
2023/08/01 05:00:38;;;;;;;4.63;4.17;;;;;;;;;;6268765;28;20197;-64
2023/08/01 05:03:39;;;;;;;5.97;4.90;;;;;;;;;;6256353;28;20286;-64
2023/08/01 05:06:40;;;;;;;5.40;3.90;;;;;;;;;;6277461;28;20289;-64
2023/08/01 05:09:41;;;;;;;5.00;4.50;;;;;;;;;;6245704;28;20199;-64
2023/08/01 05:12:42;;;;;;;5.87;4.93;;;;;;;;;;6268911;28;20180;-65
2023/08/01 05:15:49;;;;;;;4.83;4.30;;;;;;;;;;6244335;28;20244;-65
2023/08/01 05:18:50;;;;;;;4.57;4.17;;;;;;;;;;6252813;28;20195;-64
2023/08/01 05:21:51;;;;;;;6.47;4.13;;;;;;;;;;6261557;28;20208;-65
2023/08/01 05:24:53;;;;;;;4.60;4.20;;;;;;;;;;6268900;28;20273;-66
2023/08/01 05:27:54;;;;;;;5.30;3.97;;;;;;;;;;6235715;28;20191;-64
2023/08/01 05:30:55;;;;;;;4.63;4.13;;;;;;;;;;6244856;28;20242;-64
2023/08/01 05:33:56;;;;;;;5.17;4.67;;;;;;;;;;6283932;28;20189;-65
2023/08/01 05:36:57;;;;;;;6.87;4.37;;;;;;;;;;6252752;28;20216;-65
2023/08/01 05:39:58;;;;;;;5.03;4.47;;;;;;;;;;6266235;28;20187;-63
2023/08/01 05:42:59;;;;;;;4.87;4.37;;;;;;;;;;6257164;28;20275;-63
2023/08/01 05:46:00;;;;;;;5.73;4.17;;;;;;;;;;6245035;28;20201;-66
2023/08/01 05:49:01;;;;;;;5.13;4.73;;;;;;;;;;6249107;28;20217;-65
2023/08/01 05:52:02;;;;;;;4.43;4.03;;;;;;;;;;6249168;28;20197;-65
2023/08/01 05:55:03;;;;;;;4.97;4.57;;;;;;;;;;6249478;28;20209;-65
2023/08/01 05:58:04;;;;;;;4.73;4.27;;;;;;;;;;6269779;28;20328;-64
2023/08/01 06:01:05;;;;;;;5.50;4.57;;;;;;;;;;6248418;28;20284;-65
2023/08/01 06:04:07;;;;;;;4.10;3.73;;;;;;;;;;6257247;28;20198;-64
2023/08/01 06:07:08;;;;;;;5.17;4.67;;;;;;;;;;6256444;28;20198;-65
2023/08/01 06:10:09;;;;;;;5.23;4.43;;;;;;;;;;6242341;28;20194;-65
2023/08/01 06:13:10;;;;;;;4.50;4.10;;;;;;;;;;6254064;28;20290;-65
2023/08/01 06:16:12;;;;;;;6.67;4.47;;;;;;;;;;6260981;28;20224;-65
2023/08/01 06:19:13;;;;;;;4.73;4.33;;;;;;;;;;6272370;28;20259;-64
2023/08/01 06:22:14;;;;;;;4.63;4.10;;;;;;;;;;6253317;28;20193;-65
2023/08/01 06:25:15;;;;;;;4.70;4.20;;;;;;;;;;6248726;28;20190;-65
2023/08/01 06:28:16;;;;;;;6.50;4.57;;;;;;;;;;6238455;28;20204;-65
2023/08/01 06:31:17;;;;;;;4.30;3.90;;;;;;;;;;6247599;28;20334;-66
2023/08/01 06:34:18;;;;;;;5.13;4.63;;;;;;;;;;6245087;28;20189;-64
2023/08/01 06:37:19;;;;;;;4.23;3.93;;;;;;;;;;6249844;28;20205;-65
2023/08/01 06:40:20;;;;;;;4.73;4.30;;;;;;;;;;6266576;28;20190;-66
2023/08/01 06:43:21;;;;;;;5.50;4.17;;;;;;;;;;6247289;28;20186;-67
2023/08/01 06:46:22;;;;;;;4.87;4.47;;;;;;;;;;6257124;28;20202;-66
2023/08/01 06:49:23;;;;;;;4.20;3.90;;;;;;;;;;6248676;28;20204;-66
2023/08/01 06:52:24;;;;;;;5.40;4.60;;;;;;;;;;6271708;28;20197;-66
2023/08/01 06:55:25;;;;;;;5.30;4.70;;;;;;;;;;6281251;28;20208;-66
2023/08/01 06:58:26;;;;;;;4.57;4.07;;;;;;;;;;6242256;28;20185;-67
2023/08/01 07:01:27;;;;;;;4.97;4.57;;;;;;;;;;6235834;28;20259;-67
2023/08/01 07:04:29;;;;;;;5.07;4.43;;;;;;;;;;6274495;28;20186;-67
2023/08/01 07:07:30;;;;;;;8.07;4.37;;;;;;;;;;6258474;28;20200;-67
2023/08/01 07:10:34;;;;;;;4.90;4.30;;;;;;;;;;6234377;28;20189;-66
2023/08/01 07:13:35;;;;;;;4.43;4.03;;;;;;;;;;6248441;28;20229;-67
2023/08/01 07:16:36;;;;;;;5.00;4.20;;;;;;;;;;6248778;28;20309;-64
2023/08/01 07:19:37;;;;;;;5.17;4.67;;;;;;;;;;6275524;28;20189;-65
2023/08/01 07:22:38;;;;;;;5.67;4.37;;;;;;;;;;6243310;28;20186;-65
2023/08/01 07:25:39;;;;;;;4.60;4.17;;;;;;;;;;6250258;28;20193;-65
2023/08/01 07:28:40;;;;;;;4.80;4.30;;;;;;;;;;6242825;28;20197;-66
2023/08/01 07:31:42;;;;;;;4.33;3.93;;;;;;;;;;6262154;28;20276;-65
2023/08/01 07:34:43;;;;;;;4.83;4.13;;;;;;;;;;6252215;28;20254;-65
2023/08/01 07:37:44;;;;;;;6.30;4.40;;;;;;;;;;6245787;28;20219;-64
2023/08/01 07:40:45;;;;;;;4.93;4.53;;;;;;;;;;6250010;28;20194;-64
2023/08/01 07:43:46;;;;;;;5.20;4.70;;;;;;;;;;6271097;28;20190;-64
2023/08/01 07:46:47;;;;;;;5.27;4.60;;;;;;;;;;6248709;28;20293;-64
2023/08/01 07:49:48;;;;;;;4.60;3.80;;;;;;;;;;6263156;28;20190;-66
2023/08/01 07:52:49;;;;;;;6.27;4.57;;;;;;;;;;6243701;28;20194;-67
2023/08/01 07:55:52;;;;;;;4.97;4.47;;;;;;;;;;6270146;28;20217;-65
2023/08/01 07:58:53;;;;;;;4.97;4.57;;;;;;;;;;6253966;28;20191;-65
2023/08/01 08:01:54;;;;;;;4.60;4.13;;;;;;;;;;6249372;28;20190;-65
2023/08/01 08:04:55;;;;;;;4.67;4.13;;;;;;;;;;6235391;28;20193;-66
2023/08/01 08:07:56;;;;;;;4.93;4.43;;;;;;;;;;6242741;28;20217;-65
2023/08/01 08:10:57;;;;;;;4.43;4.03;;;;;;;;;;6265274;28;20194;-65
2023/08/01 08:13:58;;;;;;;4.77;4.37;;;;;;;;;;6241862;28;20239;-64
2023/08/01 08:16:59;;;;;;;4.80;4.40;;;;;;;;;;6244720;28;20288;-64
2023/08/01 08:20:00;;;;;;;5.13;4.63;;;;;;;;;;6240310;28;20209;-64
2023/08/01 08:23:01;;;;;;;4.43;4.03;;;;;;;;;;6237180;28;20186;-67
2023/08/01 08:26:04;;;;;;;4.60;4.20;;;;;;;;;;6237945;28;20205;-64
2023/08/01 08:29:05;;;;;;;5.03;4.53;;;;;;;;;;6269609;28;20201;-64
2023/08/01 08:32:07;;;;;;;4.67;4.27;;;;;;;;;;6260244;28;20229;-64
2023/08/01 08:35:08;;;;;;;4.40;4.00;;;;;;;;;;6247160;28;20252;-64
2023/08/01 08:38:09;;;;;;;4.40;4.10;;;;;;;;;;6279070;28;20190;-64
2023/08/01 08:41:11;;;;;;;5.53;4.97;;;;;;;;;;6242752;28;20290;-65
2023/08/01 08:44:14;;;;;;;5.33;4.47;;;;;;;;;;6258580;28;20222;-65
2023/08/01 08:47:18;;;;;;;5.17;4.70;;;;;;;;;;6255742;28;20182;-64
2023/08/01 08:50:19;;;;;;;10.67;5.13;;;;;;;;;;6262482;28;20255;-64
2023/08/01 08:53:21;;;;;;;5.37;4.53;;;;;;;;;;6248680;28;20216;-65
2023/08/01 08:56:23;;;;;;;4.13;3.83;;;;;;;;;;6259731;28;20273;-66
2023/08/01 08:59:25;;;;;;;5.07;4.60;;;;;;;;;;6247262;28;20285;-66
2023/08/01 09:02:27;;;;;;;4.73;4.10;;;;;;;;;;6268246;28;20190;-67
2023/08/01 09:05:32;;;;;;;5.67;4.70;;;;;;;;;;6250048;28;20255;-66
2023/08/01 09:08:36;;;;;;;4.50;3.83;;;;;;;;;;6259559;28;20194;-66
2023/08/01 09:11:47;;;;;;;5.20;4.70;;;;;;;;;;6270456;28;20217;-66
2023/08/01 09:14:51;;;;;;;4.33;3.93;;;;;;;;;;6272615;28;20190;-64
2023/08/01 09:17:52;;;;;;;4.90;4.50;;;;;;;;;;6273366;28;20194;-63
2023/08/01 09:20:53;;;;;;;4.80;4.30;;;;;;;;;;6253037;28;20190;-65
2023/08/01 09:23:54;;;;;;;5.90;4.50;;;;;;;;;;6264906;28;20194;-66
2023/08/01 09:27:04;;;;;;;4.67;4.27;;;;;;;;;;6245269;28;20190;-66
2023/08/01 09:30:05;;;;;;;5.33;4.67;;;;;;;;;;6258749;28;20324;-65
2023/08/01 09:33:06;;;;;;;4.50;4.10;;;;;;;;;;6267351;28;20201;-66
2023/08/01 09:36:10;;;;;;;4.57;4.17;;;;;;;;;;6246729;28;20327;-66
2023/08/01 09:39:16;;;;;;;6.37;4.40;;;;;;;;;;6251404;28;20190;-66
2023/08/01 09:42:17;;;;;;;4.67;4.27;;;;;;;;;;6256509;28;20281;-66
2023/08/01 09:45:19;;;;;;;4.97;4.47;;;;;;;;;;6256487;28;20207;-66
2023/08/01 09:48:24;;;;;;;4.80;4.40;;;;;;;;;;6256462;28;20253;-66
2023/08/01 09:51:25;;;;;;;4.60;4.20;;;;;;;;;;6258049;28;20191;-66
2023/08/01 09:54:26;;;;;;;6.17;4.77;;;;;;;;;;6265208;28;20194;-66
2023/08/01 09:57:29;;;;;;;4.20;3.80;;;;;;;;;;6267536;28;20224;-66
2023/08/01 10:00:30;;;;;;;4.43;4.03;;;;;;;;;;6256973;28;20292;-66
2023/08/01 10:03:31;;;;;;;4.73;4.33;;;;;;;;;;6249032;28;20193;-66
2023/08/01 10:06:34;;;;;;;5.70;4.70;;;;;;;;;;6244368;28;20198;-66
2023/08/01 10:09:35;;;;;;;4.47;4.07;;;;;;;;;;6249131;28;20195;-66
2023/08/01 10:12:37;;;;;;;4.47;4.07;;;;;;;;;;6255099;28;20187;-66
2023/08/01 10:15:38;;;;;;;4.47;4.07;;;;;;;;;;6250300;28;20213;-66
2023/08/01 10:18:40;;;;;;;4.73;4.10;;;;;;;;;;6265228;28;20281;-66
2023/08/01 10:21:44;;;;;;;4.67;4.33;;;;;;;;;;6255920;28;20228;-66
2023/08/01 10:24:46;;;;;;;4.60;4.20;;;;;;;;;;6264937;28;20195;-66
2023/08/01 10:27:57;;;;;;;4.70;4.37;;;;;;;;;;6252171;28;20194;-66
2023/08/01 10:31:12;;;;;;;4.57;4.23;;;;;;;;;;6252951;28;20245;-66
2023/08/01 10:34:13;;;;;;;5.10;4.63;;;;;;;;;;6246598;28;20205;-66
2023/08/01 10:37:14;;;;;;;4.53;4.23;;;;;;;;;;6260326;28;20198;-66
2023/08/01 10:40:15;;;;;;;5.07;4.67;;;;;;;;;;6282255;28;20192;-66
2023/08/01 10:43:23;;;;;;;5.07;4.67;;;;;;;;;;6273211;28;20199;-66
2023/08/01 10:46:24;;;;;;;4.90;4.47;;;;;;;;;;6252737;28;20213;-67
2023/08/01 10:49:45;;;;;;;4.80;4.40;;;;;;;;;;6247896;28;20190;-66
2023/08/01 10:52:46;;;;;;;6.57;5.60;;;;;;;;;;6250079;28;20195;-66
2023/08/01 10:55:48;;;;;;;5.67;5.13;;;;;;;;;;6244729;28;20210;-66
2023/08/01 10:58:49;;;;;;;6.77;5.00;;;;;;;;;;6246906;28;20198;-66
2023/08/01 11:01:52;;;;;;;6.07;5.57;;;;;;;;;;6245016;28;20194;-66
2023/08/01 11:05:03;;;;;;;7.23;6.57;;;;;;;;;;6258788;28;20187;-66
2023/08/01 11:08:05;;;;;;;9.17;6.27;;;;;;;;;;6252253;28;20183;-66
2023/08/01 11:11:08;;;;;;;7.90;6.20;;;;;;;;;;6273623;28;20214;-66
2023/08/01 11:14:09;;;;;;;7.70;6.47;;;;;;;;;;6261162;28;20182;-66
2023/08/01 11:17:12;;;;;;;7.50;6.87;;;;;;;;;;6240921;28;20213;-66
2023/08/01 11:20:13;;;;;;;7.70;6.90;;;;;;;;;;6259455;28;20232;-66
2023/08/01 11:23:14;;;;;;;7.97;7.27;;;;;;;;;;6264306;28;20272;-66
2023/08/01 11:26:16;;;;;;;8.90;8.10;;;;;;;;;;6246803;28;20201;-66
2023/08/01 11:29:18;;;;;;;9.27;8.47;;;;;;;;;;6239992;28;20293;-66
2023/08/01 11:32:23;;;;;;;8.10;7.30;;;;;;;;;;6255346;28;20198;-66
2023/08/01 11:35:24;;;;;;;9.03;7.77;;;;;;;;;;6268079;28;20207;-66
2023/08/01 11:38:26;;;;;;;8.80;8.03;;;;;;;;;;6245891;28;20197;-66
2023/08/01 11:41:27;;;;;;;8.97;8.27;;;;;;;;;;6266993;28;20179;-66
2023/08/01 11:44:29;;;;;;;9.63;8.83;;;;;;;;;;6260203;28;20198;-66
2023/08/01 11:47:30;;;;;;;9.10;8.30;;;;;;;;;;6235339;28;20206;-66
2023/08/01 11:50:31;;;;;;;9.47;8.63;;;;;;;;;;6251614;28;20201;-66
2023/08/01 11:53:38;;;;;;;8.37;7.67;;;;;;;;;;6237604;28;20190;-66
2023/08/01 11:56:39;;;;;;;8.63;7.73;;;;;;;;;;6250216;28;20229;-66
2023/08/01 11:59:50;;;;;;;10.37;9.47;;;;;;;;;;6247757;28;20186;-66
2023/08/01 12:02:51;;;;;;;9.70;8.70;;;;;;;;;;6259257;28;20191;-66
2023/08/01 12:05:52;;;;;;;9.97;9.13;;;;;;;;;;6246301;28;20198;-66
2023/08/01 12:08:54;;;;;;;9.00;8.30;;;;;;;;;;6246207;28;20190;-66
2023/08/01 12:12:04;;;;;;;9.47;8.57;;;;;;;;;;6243498;28;20198;-66
2023/08/01 12:15:05;;;;;;;10.03;9.13;;;;;;;;;;6286319;28;20198;-66
2023/08/01 12:18:06;;;;;;;9.87;8.90;;;;;;;;;;6253050;28;20246;-66
2023/08/01 12:21:07;;;;;;;10.27;9.17;;;;;;;;;;6248370;28;20289;-66
2023/08/01 12:24:08;;;;;;;9.07;8.27;;;;;;;;;;6243514;28;20190;-66
2023/08/01 12:27:09;;;;;;;11.00;9.47;;;;;;;;;;6244653;28;20197;-66
2023/08/01 12:30:10;;;;;;;9.47;8.67;;;;;;;;;;6253212;28;20352;-66
2023/08/01 12:33:12;;;;;;;9.57;8.70;;;;;;;;;;6244070;28;20190;-66
2023/08/01 12:36:13;;;;;;;10.60;9.60;;;;;;;;;;6272847;28;20280;-66
2023/08/01 12:39:14;;;;;;;10.80;9.80;;;;;;;;;;6246582;28;20226;-66
2023/08/01 12:42:15;;;;;;;10.70;9.70;;;;;;;;;;6248988;28;20316;-66
2023/08/01 12:45:16;;;;;;;6.40;4.00;;;;;;;;;;6275621;28;20193;-66
2023/08/01 12:48:17;;;;;;;5.30;2.73;;;;;;;;;;6274284;28;20191;-67
2023/08/01 12:51:18;;;;;;;4.40;2.43;;;;;;;;;;6256515;28;20202;-67
2023/08/01 12:54:19;;;;;;;5.97;2.50;;;;;;;;;;6266880;28;20190;-67
2023/08/01 12:57:20;;;;;;;3.63;2.40;;;;;;;;;;6269157;28;20220;-67
2023/08/01 13:00:21;;;;;;;3.93;2.20;;;;;;;;;;6263095;28;20190;-67
2023/08/01 13:03:22;;;;;;;5.07;2.20;;;;;;;;;;6250040;28;20194;-67
2023/08/01 13:06:23;;;;;;;2.03;1.43;;;;;;;;;;6256304;28;20195;-67
2023/08/01 13:09:24;;;;;;;2.37;1.67;;;;;;;;;;6241881;28;20247;-67
2023/08/01 13:12:25;;;;;;;3.80;1.93;;;;;;;;;;6284619;28;20190;-66
2023/08/01 13:15:27;;;;;;;2.50;1.83;;;;;;;;;;6254736;28;20216;-66
2023/08/01 13:18:28;;;;;;;3.30;1.67;;;;;;;;;;6262495;28;20198;-67
2023/08/01 13:21:29;;;;;;;3.23;1.60;;;;;;;;;;6247429;28;20205;-66
2023/08/01 13:24:30;;;;;;;3.53;2.00;;;;;;;;;;6258375;28;20191;-66
2023/08/01 13:27:31;;;;;;;5.17;2.30;;;;;;;;;;6269149;28;20252;-66
2023/08/01 13:30:32;;;;;;;10.33;2.83;;;;;;;;;;6255493;28;20249;-66
2023/08/01 13:33:33;;;;;;;5.00;2.30;;;;;;;;;;6243751;28;20186;-66
2023/08/01 13:36:34;;;;;;;4.90;2.40;;;;;;;;;;6282484;28;20205;-66
2023/08/01 13:39:35;;;;;;;3.50;2.07;;;;;;;;;;6248739;28;20201;-66
2023/08/01 13:42:36;;;;;;;19.93;4.40;;;;;;;;;;6254543;28;20190;-66
2023/08/01 13:45:37;;;;;;;26.40;4.80;;;;;;;;;;6252539;28;20192;-66
2023/08/01 13:48:38;;;;;;;178.20;18.43;;;;;;;;;;6250981;28;20201;-66
2023/08/01 13:51:39;;;;;;;7.03;3.30;;;;;;;;;;6251178;28;20292;-66
2023/08/01 13:54:40;;;;;;;16.20;4.03;;;;;;;;;;6255106;28;20186;-66
2023/08/01 13:57:41;;;;;;;5.50;3.00;;;;;;;;;;6255535;28;20298;-66
2023/08/01 14:00:42;;;;;;;4.87;2.10;;;;;;;;;;6248287;28;20186;-66
2023/08/01 14:03:43;;;;;;;4.27;2.50;;;;;;;;;;6239974;28;20258;-66
2023/08/01 14:06:44;;;;;;;4.73;2.67;;;;;;;;;;6248188;28;20194;-66
2023/08/01 14:09:46;;;;;;;5.00;2.57;;;;;;;;;;6246492;28;20208;-66
2023/08/01 14:12:47;;;;;;;4.33;2.90;;;;;;;;;;6254495;28;20197;-66
2023/08/01 14:15:48;;;;;;;6.20;3.33;;;;;;;;;;6256446;28;20256;-66
2023/08/01 14:18:49;;;;;;;3.73;2.23;;;;;;;;;;6247674;28;20186;-66
2023/08/01 14:21:50;;;;;;;3.23;2.67;;;;;;;;;;6257737;28;20186;-66
2023/08/01 14:24:51;;;;;;;8.60;3.53;;;;;;;;;;6247885;28;20252;-66
2023/08/01 14:27:52;;;;;;;7.73;3.83;;;;;;;;;;6260394;28;20324;-66
2023/08/01 14:30:53;;;;;;;6.83;3.50;;;;;;;;;;6248781;28;20325;-66
2023/08/01 14:33:54;;;;;;;11.60;3.10;;;;;;;;;;6278187;28;20198;-66
2023/08/01 14:36:55;;;;;;;4.20;2.57;;;;;;;;;;6248282;28;20280;-66
2023/08/01 14:39:56;;;;;;;5.40;3.37;;;;;;;;;;6257940;28;20228;-66
2023/08/01 14:42:57;;;;;;;3.93;2.93;;;;;;;;;;6249346;28;20194;-66
2023/08/01 14:45:58;;;;;;;4.77;3.10;;;;;;;;;;6255108;28;20187;-66
2023/08/01 14:48:59;;;;;;;4.67;3.23;;;;;;;;;;6241465;28;20202;-66
2023/08/01 14:52:00;;;;;;;5.40;3.17;;;;;;;;;;6253727;28;20217;-66
2023/08/01 14:55:01;;;;;;;4.30;2.27;;;;;;;;;;6249282;28;20198;-66
2023/08/01 14:58:03;;;;;;;9.30;3.07;;;;;;;;;;6264191;28;20198;-66
2023/08/01 15:01:04;;;;;;;9.50;2.90;;;;;;;;;;6249806;28;20214;-67
2023/08/01 15:04:05;;;;;;;7.33;2.90;;;;;;;;;;6261940;28;20285;-67
2023/08/01 15:07:06;;;;;;;9.07;3.00;;;;;;;;;;6250138;28;20260;-66
2023/08/01 15:10:07;;;;;;;4.57;2.67;;;;;;;;;;6251906;28;20194;-66
2023/08/01 15:13:08;;;;;;;5.20;3.13;;;;;;;;;;6239912;28;20285;-66
2023/08/01 15:16:11;;;;;;;17.30;3.37;;;;;;;;;;6242349;28;20308;-66
2023/08/01 15:19:12;;;;;;;4.47;3.00;;;;;;;;;;6252976;28;20260;-67
2023/08/01 15:22:14;;;;;;;3.73;2.50;;;;;;;;;;6270612;28;20238;-67
2023/08/01 15:25:15;;;;;;;7.57;2.80;;;;;;;;;;6248490;28;20252;-67
2023/08/01 15:28:16;;;;;;;4.57;2.67;;;;;;;;;;6245067;28;20212;-67
2023/08/01 15:31:17;;;;;;;7.17;3.00;;;;;;;;;;6245851;28;20241;-67
2023/08/01 15:34:20;;;;;;;11.57;2.80;;;;;;;;;;6250376;28;20186;-67
2023/08/01 15:37:21;;;;;;;6.67;3.53;;;;;;;;;;6248284;28;20211;-67
2023/08/01 15:40:22;;;;;;;4.83;3.13;;;;;;;;;;6255330;28;20190;-67
2023/08/01 15:43:24;;;;;;;4.47;3.00;;;;;;;;;;6253924;28;20190;-67
2023/08/01 15:46:25;;;;;;;7.13;3.10;;;;;;;;;;6261005;28;20194;-67
2023/08/01 15:49:26;;;;;;;4.37;3.47;;;;;;;;;;6241339;28;20201;-67
2023/08/01 15:52:27;;;;;;;4.97;3.40;;;;;;;;;;6243899;28;20236;-67
2023/08/01 15:55:28;;;;;;;5.93;2.97;;;;;;;;;;6261944;28;20214;-67
2023/08/01 15:58:30;;;;;;;5.27;3.23;;;;;;;;;;6246046;28;20196;-67
2023/08/01 16:01:31;;;;;;;7.20;3.37;;;;;;;;;;6252226;28;20182;-67
2023/08/01 16:04:32;;;;;;;8.07;2.93;;;;;;;;;;6244833;28;20191;-67
2023/08/01 16:07:34;;;;;;;5.83;3.10;;;;;;;;;;6269839;28;20262;-67
2023/08/01 16:10:35;;;;;;;7.37;3.57;;;;;;;;;;6237666;28;20194;-67
2023/08/01 16:13:36;;;;;;;9.43;3.53;;;;;;;;;;6235015;28;20282;-67
2023/08/01 16:16:37;;;;;;;11.83;4.30;;;;;;;;;;6245735;28;20304;-67
2023/08/01 16:19:38;;;;;;;6.17;3.13;;;;;;;;;;6263318;28;20241;-68
2023/08/01 16:22:40;;;;;;;5.10;3.30;;;;;;;;;;6263516;28;20202;-68
2023/08/01 16:25:41;;;;;;;9.67;4.50;;;;;;;;;;6233031;28;20198;-67
2023/08/01 16:28:42;;;;;;;9.93;4.30;;;;;;;;;;6254323;28;20190;-66
2023/08/01 16:31:43;;;;;;;13.87;5.17;;;;;;;;;;6263693;28;20238;-67
2023/08/01 16:34:45;;;;;;;6.07;3.93;;;;;;;;;;6242280;28;20212;-67
2023/08/01 16:37:46;;;;;;;8.00;4.37;;;;;;;;;;6251821;28;20214;-68
2023/08/01 16:40:47;;;;;;;5.20;3.50;;;;;;;;;;6260883;28;20215;-68
2023/08/01 16:43:49;;;;;;;8.73;4.23;;;;;;;;;;6246474;28;20213;-67
2023/08/01 16:46:50;;;;;;;15.50;4.00;;;;;;;;;;6245539;28;20190;-68
2023/08/01 16:49:55;;;;;;;6.80;3.80;;;;;;;;;;6241706;28;20198;-68
2023/08/01 16:52:56;;;;;;;10.83;4.53;;;;;;;;;;6255190;28;20187;-68
2023/08/01 16:55:58;;;;;;;10.10;3.83;;;;;;;;;;6275604;28;20219;-67
2023/08/01 16:58:59;;;;;;;8.30;4.03;;;;;;;;;;6246965;28;20190;-67
2023/08/01 17:02:00;;;;;;;6.43;3.90;;;;;;;;;;6270050;28;20195;-67
2023/08/01 17:05:01;;;;;;;9.97;4.30;;;;;;;;;;6249752;28;20191;-68
2023/08/01 17:08:02;;;;;;;7.60;3.70;;;;;;;;;;6253698;28;20189;-68
2023/08/01 17:11:06;;;;;;;6.33;3.93;;;;;;;;;;6250598;28;20205;-68
2023/08/01 17:14:08;;;;;;;6.43;4.00;;;;;;;;;;6245783;28;20233;-67
2023/08/01 17:17:09;;;;;;;14.37;4.63;;;;;;;;;;6253089;28;20226;-67
2023/08/01 17:20:10;;;;;;;8.77;4.17;;;;;;;;;;6248256;28;20248;-67
2023/08/01 17:23:11;;;;;;;9.10;4.37;;;;;;;;;;6258262;28;20255;-67
2023/08/01 17:26:13;;;;;;;5.43;3.70;;;;;;;;;;6258553;28;20240;-67
2023/08/01 17:29:14;;;;;;;6.67;3.40;;;;;;;;;;6255202;28;20202;-68
2023/08/01 17:32:17;;;;;;;9.33;4.00;;;;;;;;;;6255387;28;20238;-67
2023/08/01 17:35:18;;;;;;;5.67;3.50;;;;;;;;;;6237718;28;20195;-67
2023/08/01 17:38:20;;;;;;;8.57;4.37;;;;;;;;;;6248823;28;20194;-67
2023/08/01 17:41:23;;;;;;;11.03;4.23;;;;;;;;;;6245325;28;20186;-67
2023/08/01 17:44:24;;;;;;;8.53;3.40;;;;;;;;;;6263509;28;20194;-68
2023/08/01 17:47:27;;;;;;;5.40;3.10;;;;;;;;;;6242429;28;20195;-67
2023/08/01 17:50:28;;;;;;;6.10;3.70;;;;;;;;;;6252432;28;20187;-67
2023/08/01 17:53:30;;;;;;;7.50;3.67;;;;;;;;;;6285663;28;20284;-67
2023/08/01 17:56:31;;;;;;;12.57;4.23;;;;;;;;;;6257580;28;20217;-67
2023/08/01 17:59:35;;;;;;;5.57;3.40;;;;;;;;;;6239376;28;20262;-69
2023/08/01 18:02:36;;;;;;;9.43;3.60;;;;;;;;;;6268413;28;20214;-68
2023/08/01 18:05:39;;;;;;;8.17;3.53;;;;;;;;;;6245995;28;20198;-68
2023/08/01 18:08:42;;;;;;;5.43;3.40;;;;;;;;;;6250078;28;20196;-68